Time;durP1;ratioP1;P1;durP2;ratioP2;P2;SDS_P1;SDS_P2;PMS_P1;PMS_P2;Temp;Humidity;BMP_temperature;BMP_pressure;BME280_temperature;BME280_humidity;BME280_pressure;Samples;Min_cycle;Max_cycle;Signal;HPM_P1;HPM_P2
2022/10/17 03:28:57;;;;;;;;;;;;;;;7.72;100.00;99971.19;5577030;23;20402;-86
2022/10/17 03:31:22;;;;;;;;;;;;;;;7.71;100.00;99972.09;4978751;28;20376;-83
2022/10/17 03:33:48;;;;;;;;;;;;;;;7.79;100.00;99974.53;4996276;28;19929;-82
2022/10/17 03:36:14;;;;;;;;;;;;;;;7.85;100.00;99981.38;4995964;28;19921;-87
2022/10/17 03:38:39;;;;;;;;;;;;;;;7.82;100.00;99983.22;4978568;28;19918;-83
2022/10/17 03:41:05;;;;;;;;;;;;;;;7.85;100.00;99986.66;4995785;28;19917;-85
2022/10/17 03:43:30;;;;;;;;;;;;;;;7.84;100.00;99987.59;4994609;28;19949;-83
2022/10/17 03:45:57;;;;;;;;;;;;;;;7.89;100.00;99990.94;4995777;28;20020;-86
2022/10/17 03:48:22;;;;;;;;;;;;;;;7.94;100.00;99986.41;4995711;28;19972;-84
2022/10/17 03:50:47;;;;;;;;;;;;;;;7.93;100.00;99992.56;4996007;28;19918;-87
2022/10/17 03:53:15;;;;;;;;;;;;;;;7.98;100.00;100002.09;4995738;28;20384;-88
2022/10/17 03:55:41;;;;;;;;;;;;;;;8.00;100.00;99999.41;4995240;28;19921;-85
2022/10/17 03:58:06;;;;;;;;;;;;;;;7.97;100.00;99995.09;4994257;28;20369;-85
2022/10/17 04:00:31;;;;;;;;;;;;;;;8.02;100.00;99992.31;4995658;28;19918;-86
2022/10/17 04:02:57;;;;;;;;;;;;;;;8.01;100.00;99993.25;4977876;28;19918;-85
2022/10/17 04:05:22;;;;;;;;;;;;;;;8.02;100.00;99989.69;4995724;28;20016;-87
2022/10/17 04:07:48;;;;;;;;;;;;;;;8.05;100.00;99989.59;4995518;28;20017;-88
2022/10/17 04:10:13;;;;;;;;;;;;;;;8.08;100.00;99994.78;4995396;28;19917;-85
2022/10/17 04:12:38;;;;;;;;;;;;;;;8.07;100.00;100000.09;4976534;28;19918;-86
2022/10/17 04:15:04;;;;;;;;;;;;;;;8.12;100.00;99996.44;4995486;28;19918;-86
2022/10/17 04:17:30;;;;;;;;;;;;;;;8.09;100.00;100001.81;4995352;28;20416;-87
2022/10/17 04:19:55;;;;;;;;;;;;;;;8.14;100.00;100002.53;4977705;28;19918;-88
2022/10/17 04:22:20;;;;;;;;;;;;;;;8.14;100.00;100002.53;4995338;28;19944;-87
2022/10/17 04:24:45;;;;;;;;;;;;;;;8.14;100.00;99999.88;4995115;28;19929;-85
2022/10/17 04:27:11;;;;;;;;;;;;;;;8.18;100.00;100001.53;4994927;28;19949;-86
2022/10/17 04:29:36;;;;;;;;;;;;;;;8.16;100.00;100008.63;4993450;28;19930;-87
2022/10/17 04:32:01;;;;;;;;;;;;;;;8.18;100.00;100001.53;4995101;28;19918;-83
2022/10/17 04:34:26;;;;;;;;;;;;;;;8.22;100.00;100006.69;4994932;28;20240;-85
2022/10/17 04:36:51;;;;;;;;;;;;;;;8.19;100.00;100013.81;4995287;28;19925;-85
2022/10/17 04:39:17;;;;;;;;;;;;;;;8.17;100.00;100014.78;4994914;28;20393;-86
2022/10/17 07:43:12;;;;;;;;;;;;;;;6.17;100.00;100166.25;5053751;23;20023;-86
2022/10/17 07:45:39;;;;;;;;;;;;;;;6.16;100.00;100166.28;4993291;28;20052;-85
2022/10/17 07:48:04;;;;;;;;;;;;;;;6.21;100.00;100174.94;5011340;28;19922;-85
2022/10/17 07:50:31;;;;;;;;;;;;;;;6.15;100.00;100175.91;5011839;28;19918;-85
2022/10/17 07:52:57;;;;;;;;;;;;;;;6.09;100.00;100181.28;5011013;28;19967;-85
2022/10/17 07:55:22;;;;;;;;;;;;;;;6.21;100.00;100179.31;4993644;28;20369;-86
2022/10/17 07:57:47;;;;;;;;;;;;;;;6.13;100.00;100174.22;5010512;28;19921;-85
2022/10/17 08:00:13;;;;;;;;;;;;;;;6.11;100.00;100178.63;4993642;28;19913;-86
2022/10/17 08:02:38;;;;;;;;;;;;;;;6.15;100.00;100175.06;4993634;28;20394;-86
2022/10/17 08:05:03;;;;;;;;;;;;;;;6.05;100.00;100173.47;5014390;28;19960;-85
2022/10/17 08:07:29;;;;;;;;;;;;;;;5.96;100.00;100170.13;5015122;28;19944;-86
2022/10/17 08:09:54;;;;;;;;;;;;;;;5.99;100.00;100175.31;5014990;28;19924;-85
2022/10/17 08:12:19;;;;;;;;;;;;;;;5.99;100.00;100185.84;5013715;28;19953;-86
2022/10/17 08:14:44;;;;;;;;;;;;;;;6.02;100.00;100184.09;5014829;28;20285;-86
2022/10/17 08:17:10;;;;;;;;;;;;;;;5.99;100.00;100191.09;5014777;28;19921;-86
2022/10/17 08:19:39;;;;;;;;;;;;;;;5.98;100.00;100188.50;5014882;28;20003;-88
2022/10/17 08:22:04;;;;;;;;;;;;;;;5.92;100.00;100194.72;5014752;28;20000;-85
2022/10/17 08:24:30;;;;;;;;;;;;;;;5.94;100.00;100195.56;4996819;28;20036;-86
2022/10/17 08:26:57;;;;;;;;;;;;;;;5.91;100.00;100190.34;5284840;23;19921;-86
2022/10/17 08:29:22;;;;;;;;;;;;;;;5.89;100.00;100188.63;4993791;28;20447;-86
2022/10/17 08:31:48;;;;;;;;;;;;;;;5.85;100.00;100185.19;4994974;28;19918;-86
2022/10/17 08:34:14;;;;;;;;;;;;;;;5.87;100.00;100183.41;4977345;28;19918;-86
2022/10/17 08:36:40;;;;;;;;;;;;;;;5.91;100.00;100189.50;4994130;28;19922;-85
2022/10/17 08:39:05;;;;;;;;;;;;;;;5.91;100.00;100186.84;4994944;28;19921;-85
2022/10/17 08:41:41;;;;;;;;;;;;;;;5.82;100.00;100183.50;4976155;28;19956;-86
2022/10/17 08:44:24;;;;;;;;;;;;;;;5.83;100.00;100189.63;4994772;28;19924;-85
2022/10/17 08:46:52;;;;;;;;;;;;;;;5.84;100.00;100196.63;4994679;28;19925;-85
2022/10/17 08:49:34;;;;;;;;;;;;;;;5.80;100.00;100189.66;4994512;28;19969;-85
2022/10/17 08:52:29;;;;;;;;;;;;;;;5.74;100.00;100192.41;4994624;28;19921;-85
2022/10/17 08:54:54;;;;;;;;;;;;;;;5.76;100.00;100203.75;4981131;28;19921;-84
2022/10/17 08:57:20;;;;;;;;;;;;;;;5.84;100.00;100207.13;4992011;28;19918;-88
2022/10/17 08:59:49;;;;;;;;;;;;;;;5.78;100.00;100212.50;4994449;28;19969;-85
2022/10/17 09:02:14;;;;;;;;;;;;;;;5.79;100.00;100215.09;4993938;28;20053;-85
2022/10/17 09:04:45;;;;;;;;;;;;;;;5.77;100.00;100214.25;4994198;28;19950;-87
2022/10/17 09:07:28;;;;;;;;;;;;;;;5.73;100.00;100209.94;4994219;28;20333;-85
2022/10/17 09:09:59;;;;;;;;;;;;;;;5.77;100.00;100213.38;4976920;28;19932;-84
2022/10/17 09:12:37;;;;;;;;;;;;;;;5.77;100.00;100216.00;4992760;28;20028;-86
2022/10/17 09:15:09;;;;;;;;;;;;;;;5.86;100.00;100221.13;4992625;28;20367;-85
2022/10/17 09:17:37;;;;;;;;;;;;;;;5.77;100.00;100226.53;4993584;28;19976;-86
2022/10/17 09:20:18;;;;;;;;;;;;;;;5.70;100.00;100230.16;4994116;28;19918;-86
2022/10/17 09:22:48;;;;;;;;;;;;;;;5.65;100.00;100232.88;4976745;28;19918;-86
2022/10/17 09:25:16;;;;;;;;;;;;;;;5.63;100.00;100237.25;4993204;28;19918;-86
2022/10/17 09:27:52;;;;;;;;;;;;;;;5.69;100.00;100233.69;4992699;28;20056;-85
2022/10/17 09:30:18;;;;;;;;;;;;;;;5.62;100.00;100241.66;4993447;28;19918;-85
2022/10/17 09:32:43;;;;;;;;;;;;;;;5.59;100.00;100236.44;4994026;28;19940;-86
2022/10/17 09:35:13;;;;;;;;;;;;;;;5.66;100.00;100233.72;4992581;28;19926;-86
2022/10/17 09:37:38;;;;;;;;;;;;;;;5.69;100.00;100238.94;4975991;28;20438;-86
2022/10/17 09:40:05;;;;;;;;;;;;;;;5.54;100.00;100243.53;4993904;28;19918;-85
2022/10/17 09:42:32;;;;;;;;;;;;;;;5.65;100.00;100248.63;4992216;28;19960;-85
2022/10/17 09:44:57;;;;;;;;;;;;;;;5.57;100.00;100245.25;4976090;28;19971;-85
2022/10/17 09:47:26;;;;;;;;;;;;;;;5.60;100.00;100246.06;4993510;28;19918;-86
2022/10/17 09:49:53;;;;;;;;;;;;;;;5.58;100.00;100247.84;4976496;28;20376;-86
2022/10/17 09:52:46;;;;;;;;;;;;;;;5.56;100.00;100247.00;4993294;28;19972;-86
2022/10/17 09:55:14;;;;;;;;;;;;;;;5.56;100.00;100241.75;4993396;28;19922;-85
2022/10/17 09:57:56;;;;;;;;;;;;;;;5.58;100.00;100252.25;4992195;28;20059;-86
2022/10/17 10:00:32;;;;;;;;;;;;;;;5.58;100.00;100253.09;4993499;28;19921;-85
2022/10/17 10:03:07;;;;;;;;;;;;;;;5.58;100.00;100257.50;4992794;28;20486;-85
2022/10/17 10:05:32;;;;;;;;;;;;;;;5.61;100.00;100253.06;4993033;28;20400;-85
2022/10/17 10:08:02;;;;;;;;;;;;;;;5.57;100.00;100259.25;4993204;28;19921;-86
2022/10/17 10:10:28;;;;;;;;;;;;;;;5.59;100.00;100262.72;4993455;28;20356;-85
2022/10/17 10:13:01;;;;;;;;;;;;;;;5.60;100.00;100267.09;4991633;28;19917;-85
2022/10/17 10:15:32;;;;;;;;;;;;;;;5.66;100.00;100270.53;4974594;28;19925;-85
2022/10/17 10:17:57;;;;;;;;;;;;;;;5.60;100.00;100267.09;4992659;28;19918;-86
2022/10/17 10:20:33;;;;;;;;;;;;;;;5.58;100.00;100279.38;4992809;28;19968;-89
2022/10/17 10:23:06;;;;;;;;;;;;;;;5.59;100.00;100280.28;4974862;28;19924;-86
2022/10/17 10:25:34;;;;;;;;;;;;;;;5.52;100.00;100282.13;4992408;28;19917;-86
2022/10/17 10:27:59;;;;;;;;;;;;;;;5.58;100.00;100284.66;4990586;28;19933;-85
2022/10/17 10:30:27;;;;;;;;;;;;;;;5.60;100.00;100275.00;4992993;28;19921;-86
2022/10/17 10:32:56;;;;;;;;;;;;;;;5.57;100.00;100274.19;4992669;28;20395;-90
2022/10/17 10:35:23;;;;;;;;;;;;;;;5.61;100.00;100289.84;4992740;28;20407;-86
2022/10/17 10:37:53;;;;;;;;;;;;;;;5.59;100.00;100286.41;4975410;28;19957;-86
2022/10/17 10:40:18;;;;;;;;;;;;;;;5.56;100.00;100275.91;4992735;28;19917;-85
2022/10/17 10:42:49;;;;;;;;;;;;;;;5.58;100.00;100281.16;4991340;28;19928;-87
2022/10/17 10:45:14;;;;;;;;;;;;;;;5.63;100.00;100290.72;4992483;28;19940;-86
2022/10/17 10:47:48;;;;;;;;;;;;;;;5.59;100.00;100286.41;4992537;28;19918;-86
2022/10/17 10:50:20;;;;;;;;;;;;;;;5.53;100.00;100291.72;4992429;28;20289;-85
2022/10/17 10:52:49;;;;;;;;;;;;;;;5.57;100.00;100297.84;4992397;28;20395;-86
2022/10/17 10:55:33;;;;;;;;;;;;;;;5.57;100.00;100308.34;4974967;28;19933;-85
2022/10/17 10:58:25;;;;;;;;;;;;;;;5.57;100.00;100303.97;4989782;28;19918;-86
2022/10/17 11:00:51;;;;;;;;;;;;;;;5.59;100.00;100301.31;4987891;28;19917;-86
2022/10/17 11:08:56;;;;;;;;;;;;;;;5.54;100.00;100303.13;5056525;23;19929;-86
2022/10/17 11:11:24;;;;;;;;;;;;;;;5.54;100.00;100298.75;4984235;28;20046;-86
2022/10/17 11:13:58;;;;;;;;;;;;;;;5.54;100.00;100300.50;4994329;28;19917;-87
2022/10/17 11:16:33;;;;;;;;;;;;;;;5.57;100.00;100303.09;5009861;28;20483;-87
2022/10/17 11:19:03;;;;;;;;;;;;;;;5.57;100.00;100305.72;4986157;28;19918;-86
2022/10/17 11:21:35;;;;;;;;;;;;;;;5.48;100.00;100306.72;5009128;28;19918;-86
2022/10/17 11:24:10;;;;;;;;;;;;;;;5.58;100.00;100305.66;5011895;28;20055;-86
2022/10/17 11:26:39;;;;;;;;;;;;;;;5.78;100.00;100301.91;5009992;28;20012;-86
2022/10/17 11:29:10;;;;;;;;;;;;;;;5.60;100.00;100313.53;5011295;28;19921;-89
2022/10/17 11:31:39;;;;;;;;;;;;;;;5.56;100.00;100312.72;5011833;28;19929;-86
2022/10/17 11:34:18;;;;;;;;;;;;;;;5.56;100.00;100312.72;5011327;28;20100;-86
2022/10/17 11:36:44;;;;;;;;;;;;;;;5.60;100.00;100310.91;4985222;28;20359;-86
2022/10/17 11:39:14;;;;;;;;;;;;;;;5.55;100.00;100307.47;5013363;28;20365;-86
2022/10/17 11:41:48;;;;;;;;;;;;;;;5.52;100.00;100315.41;5014148;28;20356;-86
2022/10/17 11:44:19;;;;;;;;;;;;;;;5.46;100.00;100308.50;5012994;28;19918;-86
2022/10/17 11:46:47;;;;;;;;;;;;;;;5.55;100.00;100313.63;5014467;28;20008;-86
2022/10/17 11:49:13;;;;;;;;;;;;;;;5.50;100.00;100311.94;5015376;28;19917;-86
2022/10/17 11:51:47;;;;;;;;;;;;;;;5.52;100.00;100316.31;4997774;28;19932;-86
2022/10/17 11:54:16;;;;;;;;;;;;;;;5.56;100.00;100312.72;5015051;28;19924;-87
2022/10/17 11:56:41;;;;;;;;;;;;;;;5.61;100.00;100310.03;5013804;28;19924;-87
2022/10/17 11:59:25;;;;;;;;;;;;;;;5.61;100.00;100313.53;5015368;28;19921;-86
2022/10/17 12:01:56;;;;;;;;;;;;;;;5.64;100.00;100310.00;5005293;28;20295;-87
2022/10/17 12:04:37;;;;;;;;;;;;;;;5.59;100.00;100302.16;5015133;28;19925;-86
2022/10/17 12:07:21;;;;;;;;;;;;;;;5.50;100.00;100307.53;5012316;28;20023;-86
2022/10/17 12:09:46;;;;;;;;;;;;;;;5.50;100.00;100307.53;5004188;28;19984;-86
2022/10/17 12:12:22;;;;;;;;;;;;;;;5.55;100.00;100305.75;5003841;28;20380;-86
2022/10/17 12:14:48;;;;;;;;;;;;;;;5.50;100.00;100301.44;5004313;28;19976;-86
2022/10/17 12:17:32;;;;;;;;;;;;;;;5.58;100.00;100303.03;5004636;28;19960;-86
2022/10/17 12:20:16;;;;;;;;;;;;;;;5.60;100.00;100303.91;5005101;28;19921;-86
2022/10/17 12:22:52;;;;;;;;;;;;;;;5.56;100.00;100310.09;5004740;28;19930;-85
2022/10/17 12:25:19;;;;;;;;;;;;;;;5.53;100.00;100311.91;5003911;28;20294;-86
2022/10/17 12:27:46;;;;;;;;;;;;;;;5.57;100.00;100314.47;5003447;28;20512;-87
2022/10/17 12:30:11;;;;;;;;;;;;;;;5.57;100.00;100311.84;5005215;28;19922;-86
2022/10/17 12:32:37;;;;;;;;;;;;;;;5.63;100.00;100309.13;5003687;28;20425;-86
2022/10/17 12:35:03;;;;;;;;;;;;;;;5.56;100.00;100307.47;5004624;28;20472;-86
2022/10/17 12:37:47;;;;;;;;;;;;;;;5.62;100.00;100307.38;5005032;28;19918;-86
2022/10/17 12:40:30;;;;;;;;;;;;;;;5.68;100.00;100310.81;5004666;28;20020;-86
2022/10/17 12:42:56;;;;;;;;;;;;;;;5.68;100.00;100305.53;5003233;28;19921;-86
2022/10/17 12:45:41;;;;;;;;;;;;;;;5.72;100.00;100307.25;4987037;28;19921;-86
2022/10/17 12:48:10;;;;;;;;;;;;;;;5.61;100.00;100310.03;4973280;28;19922;-87
2022/10/17 12:50:54;;;;;;;;;;;;;;;5.62;100.00;100309.16;5003906;28;20404;-86
2022/10/17 12:53:22;;;;;;;;;;;;;;;5.57;100.00;100309.22;5004284;28;19918;-86
2022/10/17 12:55:50;;;;;;;;;;;;;;;5.60;100.00;100309.16;5004761;28;19918;-86
2022/10/17 12:58:16;;;;;;;;;;;;;;;5.66;100.00;100313.47;5003489;28;19918;-86
2022/10/17 13:00:41;;;;;;;;;;;;;;;5.63;100.00;100314.38;4986527;28;20026;-86
2022/10/17 13:03:15;;;;;;;;;;;;;;;5.57;100.00;100308.34;5004101;28;19924;-86
2022/10/17 13:05:44;;;;;;;;;;;;;;;5.72;100.00;100305.47;5003174;28;20278;-86
2022/10/17 13:08:15;;;;;;;;;;;;;;;5.60;100.00;100308.28;5010606;28;19922;-86
2022/10/17 13:10:44;;;;;;;;;;;;;;;5.59;100.00;100307.41;5013159;28;19924;-86
2022/10/17 13:13:17;;;;;;;;;;;;;;;5.55;100.00;100304.84;5012571;28;20432;-86
2022/10/17 13:15:50;;;;;;;;;;;;;;;5.62;100.00;100296.00;5013241;28;19922;-86
2022/10/17 13:18:20;;;;;;;;;;;;;;;5.67;100.00;100303.84;5013809;28;19922;-86
2022/10/17 13:20:58;;;;;;;;;;;;;;;5.68;100.00;100301.19;4996032;28;19921;-86
2022/10/17 13:23:24;;;;;;;;;;;;;;;5.60;100.00;100301.28;5013277;28;19960;-86
2022/10/17 13:26:03;;;;;;;;;;;;;;;5.66;100.00;100299.44;5013313;28;20000;-86
2022/10/17 13:28:28;;;;;;;;;;;;;;;5.66;100.00;100302.09;5013500;28;19944;-86
2022/10/17 13:30:53;;;;;;;;;;;;;;;5.66;100.00;100300.31;5013507;28;20411;-86
2022/10/17 13:33:28;;;;;;;;;;;;;;;5.67;100.00;100298.56;5013549;28;19921;-86
2022/10/17 13:35:53;;;;;;;;;;;;;;;5.57;100.00;100303.97;5013033;28;19921;-86
2022/10/17 13:38:22;;;;;;;;;;;;;;;5.63;100.00;100301.25;5013327;28;20379;-85
2022/10/17 13:40:48;;;;;;;;;;;;;;;5.67;100.00;100299.44;5013196;28;19965;-86
2022/10/17 13:43:18;;;;;;;;;;;;;;;5.73;100.00;100303.75;5012147;28;19921;-87
2022/10/17 13:45:50;;;;;;;;;;;;;;;5.67;100.00;100312.56;5012539;28;19918;-86
2022/10/17 13:48:19;;;;;;;;;;;;;;;5.77;100.00;100305.41;5012647;28;19949;-86
2022/10/17 13:50:46;;;;;;;;;;;;;;;5.64;100.00;100310.84;5012621;28;19972;-86
2022/10/17 13:53:11;;;;;;;;;;;;;;;5.63;100.00;100319.66;5013132;28;19913;-86
2022/10/17 13:55:37;;;;;;;;;;;;;;;5.61;100.00;100325.81;5013505;28;20016;-86
2022/10/17 13:58:13;;;;;;;;;;;;;;;5.58;100.00;100316.19;5011819;28;19917;-86
2022/10/17 14:00:38;;;;;;;;;;;;;;;5.60;100.00;100322.31;5012520;28;19917;-86
2022/10/17 14:03:04;;;;;;;;;;;;;;;5.62;100.00;100317.91;5012623;28;19917;-86
2022/10/17 14:05:29;;;;;;;;;;;;;;;5.59;100.00;100314.44;5013003;28;19913;-86
2022/10/17 14:07:56;;;;;;;;;;;;;;;5.67;100.00;100309.09;5012449;28;19926;-86
2022/10/17 14:10:23;;;;;;;;;;;;;;;5.62;100.00;100317.03;5012893;28;20034;-86
2022/10/17 14:12:49;;;;;;;;;;;;;;;5.71;100.00;100316.03;5011334;28;19970;-86
2022/10/17 14:15:15;;;;;;;;;;;;;;;5.67;100.00;100309.94;5012112;28;19921;-86
2022/10/17 14:17:42;;;;;;;;;;;;;;;5.70;100.00;100309.03;5012684;28;19924;-86
2022/10/17 14:20:15;;;;;;;;;;;;;;;5.67;100.00;100314.34;5012564;28;19921;-86
2022/10/17 14:22:40;;;;;;;;;;;;;;;5.73;100.00;100314.25;5012515;28;20040;-86
2022/10/17 14:25:25;;;;;;;;;;;;;;;5.73;100.00;100315.13;5012412;28;20033;-85
2022/10/17 14:27:54;;;;;;;;;;;;;;;5.88;100.00;100319.28;5010883;28;19932;-90
2022/10/17 14:30:25;;;;;;;;;;;;;;;5.73;100.00;100311.63;5012566;28;19917;-88
2022/10/17 14:32:57;;;;;;;;;;;;;;;5.75;100.00;100315.97;5009867;28;20063;-86
2022/10/17 14:35:28;;;;;;;;;;;;;;;5.67;100.00;100312.56;5010466;28;20377;-86
2022/10/17 14:37:57;;;;;;;;;;;;;;;5.67;100.00;100314.34;4992708;28;19926;-88
2022/10/17 14:40:23;;;;;;;;;;;;;;;5.66;100.00;100312.59;5011429;28;19964;-86
2022/10/17 14:42:52;;;;;;;;;;;;;;;5.63;100.00;100317.03;5010784;28;19926;-86
2022/10/17 14:45:22;;;;;;;;;;;;;;;5.72;100.00;100320.41;4993186;28;19921;-86
2022/10/17 14:47:49;;;;;;;;;;;;;;;5.70;100.00;100324.81;5011320;28;20356;-86
2022/10/17 14:50:14;;;;;;;;;;;;;;;5.98;100.00;100322.66;5012314;28;19996;-86
2022/10/17 14:52:39;;;;;;;;;;;;;;;5.96;100.00;100327.06;5012305;28;20011;-86
2022/10/17 14:55:19;;;;;;;;;;;;;;;5.99;100.00;100321.78;5011901;28;19917;-85
2022/10/17 14:57:44;;;;;;;;;;;;;;;6.01;100.00;100330.50;5010877;28;20016;-86
2022/10/17 15:00:16;;;;;;;;;;;;;;;5.78;100.00;100330.84;5012231;28;20068;-85
2022/10/17 15:02:44;;;;;;;;;;;;;;;5.74;100.00;100334.38;5010435;28;19979;-86
2022/10/17 15:05:09;;;;;;;;;;;;;;;5.98;100.00;100341.97;5009201;28;19925;-89
2022/10/17 15:07:35;;;;;;;;;;;;;;;5.94;100.00;100348.13;5006147;28;19968;-86
2022/10/17 15:10:00;;;;;;;;;;;;;;;5.78;100.00;100349.25;5002442;28;19960;-87
2022/10/17 15:12:25;;;;;;;;;;;;;;;5.96;100.00;100359.50;4983930;28;20022;-86
2022/10/17 15:14:51;;;;;;;;;;;;;;;6.00;100.00;100360.34;5004780;28;19922;-86
2022/10/17 15:17:23;;;;;;;;;;;;;;;6.12;100.00;100367.19;5004376;28;20391;-87
2022/10/17 15:19:50;;;;;;;;;;;;;;;5.97;100.00;100363.91;4999470;28;20004;-87
2022/10/17 15:22:17;;;;;;;;;;;;;;;6.02;100.00;100362.97;4987828;28;19917;-86
2022/10/17 15:24:42;;;;;;;;;;;;;;;5.87;100.00;100367.53;5005546;28;20056;-86
2022/10/17 15:27:15;;;;;;;;;;;;;;;6.04;100.00;100372.56;4986776;28;20036;-86
2022/10/17 15:30:14;;;;;;;;;;;;;;;6.04;100.00;100367.28;5005588;28;20031;-85
2022/10/17 15:32:39;;;;;;;;;;;;;;;5.96;100.00;100372.66;4988854;28;20331;-86
2022/10/17 15:35:04;;;;;;;;;;;;;;;6.10;100.00;100368.97;4988626;28;19929;-86
2022/10/17 15:37:38;;;;;;;;;;;;;;;5.94;100.00;100373.56;5005487;28;19914;-89
2022/10/17 15:40:06;;;;;;;;;;;;;;;5.79;100.00;100367.63;5003422;28;19925;-86
2022/10/17 15:42:31;;;;;;;;;;;;;;;5.95;100.00;100368.28;5003011;28;19921;-86
2022/10/17 15:45:02;;;;;;;;;;;;;;;5.79;100.00;100377.25;4983760;28;19921;-89
2022/10/17 15:47:32;;;;;;;;;;;;;;;5.90;100.00;100372.72;5005805;28;19921;-87
2022/10/17 15:49:58;;;;;;;;;;;;;;;5.82;100.00;100378.13;5005660;28;19960;-86
2022/10/17 15:52:24;;;;;;;;;;;;;;;5.75;100.00;100383.47;5006070;28;20285;-86
2022/10/17 15:54:49;;;;;;;;;;;;;;;5.93;100.00;100371.81;5004363;28;19987;-87
2022/10/17 15:57:26;;;;;;;;;;;;;;;5.82;100.00;100372.84;4984637;28;19932;-86
2022/10/17 15:59:52;;;;;;;;;;;;;;;5.77;100.00;100381.69;5005590;28;19936;-86
2022/10/17 16:02:19;;;;;;;;;;;;;;;5.69;100.00;100375.66;5005556;28;19922;-87
2022/10/17 16:04:45;;;;;;;;;;;;;;;5.74;100.00;100365.94;5006088;28;20033;-86
2022/10/17 16:07:10;;;;;;;;;;;;;;;5.84;100.00;100375.47;5004440;28;19929;-86
2022/10/17 16:09:38;;;;;;;;;;;;;;;5.84;100.00;100375.47;5005733;28;20308;-86
2022/10/17 16:12:05;;;;;;;;;;;;;;;5.84;100.00;100385.97;5003063;28;20016;-86
2022/10/17 16:14:31;;;;;;;;;;;;;;;6.04;100.00;100376.97;5004097;28;20008;-85
2022/10/17 16:16:57;;;;;;;;;;;;;;;5.95;100.00;100378.81;4987299;28;19961;-86
2022/10/17 16:19:25;;;;;;;;;;;;;;;5.89;100.00;100378.88;5005466;28;19917;-85
2022/10/17 16:21:50;;;;;;;;;;;;;;;5.78;100.00;100380.81;5006005;28;19925;-84
2022/10/17 16:24:16;;;;;;;;;;;;;;;6.05;100.00;100379.56;5004071;28;19921;-84
2022/10/17 16:26:42;;;;;;;;;;;;;;;6.02;100.00;100381.38;5003818;28;19924;-84
2022/10/17 16:29:08;;;;;;;;;;;;;;;6.04;100.00;100380.44;5004643;28;20016;-84
2022/10/17 16:31:35;;;;;;;;;;;;;;;6.16;100.00;100382.91;5005110;28;19918;-84
2022/10/17 16:34:01;;;;;;;;;;;;;;;6.15;100.00;100390.81;4983345;28;19921;-84
2022/10/17 16:36:27;;;;;;;;;;;;;;;6.20;100.00;100388.97;4987621;28;19957;-84
2022/10/17 16:38:55;;;;;;;;;;;;;;;5.92;100.00;100386.75;5004930;28;19968;-85
2022/10/17 16:41:25;;;;;;;;;;;;;;;5.89;100.00;100399.03;4985904;28;19922;-85
2022/10/17 16:43:51;;;;;;;;;;;;;;;6.25;100.00;100396.81;4987266;28;19968;-85
2022/10/17 16:46:16;;;;;;;;;;;;;;;6.27;100.00;100389.75;4986733;28;20383;-85
2022/10/17 16:48:43;;;;;;;;;;;;;;;6.13;100.00;100401.38;4987026;28;19988;-85
2022/10/17 16:51:08;;;;;;;;;;;;;;;6.12;100.00;100406.66;5004905;28;20340;-87
2022/10/17 16:53:38;;;;;;;;;;;;;;;6.04;100.00;100401.50;5001972;28;19914;-87
2022/10/17 16:56:04;;;;;;;;;;;;;;;6.08;100.00;100402.31;5002668;28;19976;-85
2022/10/17 16:58:31;;;;;;;;;;;;;;;6.13;100.00;100405.78;4984245;28;19921;-84
2022/10/17 17:01:00;;;;;;;;;;;;;;;6.16;100.00;100409.22;4999099;28;19939;-85
2022/10/17 17:03:25;;;;;;;;;;;;;;;6.07;100.00;100413.75;5004663;28;20004;-84
2022/10/17 17:05:50;;;;;;;;;;;;;;;5.91;100.00;100416.56;4981902;28;20009;-84
2022/10/17 17:08:16;;;;;;;;;;;;;;;5.95;100.00;100420.91;4993567;28;19928;-84
2022/10/17 17:10:49;;;;;;;;;;;;;;;5.75;100.00;100422.91;5012384;28;19928;-85
2022/10/17 17:13:15;;;;;;;;;;;;;;;5.83;100.00;100423.69;4987965;28;19970;-85
2022/10/17 17:15:40;;;;;;;;;;;;;;;5.85;100.00;100424.53;5012147;28;20327;-85
2022/10/17 17:18:05;;;;;;;;;;;;;;;5.74;100.00;100426.44;5013793;28;19918;-85
2022/10/17 17:20:31;;;;;;;;;;;;;;;5.78;100.00;100428.13;5013829;28;19929;-84
2022/10/17 17:22:56;;;;;;;;;;;;;;;5.83;100.00;100426.31;4996086;28;19918;-87
2022/10/17 17:25:22;;;;;;;;;;;;;;;5.98;100.00;100422.63;5013596;28;19963;-86
2022/10/17 17:27:47;;;;;;;;;;;;;;;5.80;100.00;100423.72;4993432;28;20304;-84
2022/10/17 17:30:12;;;;;;;;;;;;;;;5.68;100.00;100427.38;5013393;28;19918;-86
2022/10/17 17:32:38;;;;;;;;;;;;;;;5.66;100.00;100428.28;5013614;28;20412;-86
2022/10/17 17:35:03;;;;;;;;;;;;;;;5.71;100.00;100432.63;5013352;28;19929;-85
2022/10/17 17:37:29;;;;;;;;;;;;;;;5.68;100.00;100434.38;5012666;28;19924;-86
2022/10/17 17:39:54;;;;;;;;;;;;;;;5.92;100.00;100436.72;5013394;28;19932;-86
2022/10/17 17:45:22;;;;;;;;;;;;;;;5.68;100.00;100440.53;4983856;28;19933;-86
2022/10/17 17:50:37;;;;;;;;;;;;;;;5.68;100.00;100443.16;4984011;28;19928;-84
2022/10/17 17:53:03;;;;;;;;;;;;;;;5.71;100.00;100452.75;4982643;28;19956;-85
2022/10/17 17:55:37;;;;;;;;;;;;;;;5.70;100.00;100451.91;4983610;28;19953;-85
2022/10/17 17:58:02;;;;;;;;;;;;;;;5.70;100.00;100453.66;4981737;28;19968;-85
2022/10/17 18:00:28;;;;;;;;;;;;;;;5.62;100.00;100453.75;4966194;28;19969;-85
2022/10/17 18:02:54;;;;;;;;;;;;;;;5.69;100.00;100452.78;4983618;28;19918;-84
2022/10/17 18:05:19;;;;;;;;;;;;;;;5.70;100.00;100451.91;4983991;28;20347;-84
2022/10/17 18:07:47;;;;;;;;;;;;;;;5.69;100.00;100455.41;4983321;28;19962;-85
2022/10/17 18:10:12;;;;;;;;;;;;;;;5.60;100.00;100456.41;4983707;28;19952;-85
2022/10/17 18:12:38;;;;;;;;;;;;;;;5.75;100.00;100463.22;4982447;28;19918;-84
2022/10/17 18:15:03;;;;;;;;;;;;;;;5.68;100.00;100464.19;4983158;28;20012;-87
2022/10/17 18:17:28;;;;;;;;;;;;;;;6.04;100.00;100454.13;4966140;28;19949;-85
2022/10/17 18:19:56;;;;;;;;;;;;;;;6.23;100.00;100452.09;4983965;28;20381;-86
2022/10/17 18:22:22;;;;;;;;;;;;;;;5.93;100.00;100456.84;4982849;28;19973;-85
2022/10/17 18:24:47;;;;;;;;;;;;;;;6.11;100.00;100457.53;4966109;28;19926;-85
2022/10/17 18:27:14;;;;;;;;;;;;;;;6.26;100.00;100459.09;4981628;28;20251;-86
2022/10/17 18:29:40;;;;;;;;;;;;;;;6.22;100.00;100455.63;4981172;28;20020;-85
2022/10/17 18:32:05;;;;;;;;;;;;;;;6.32;100.00;100457.25;4983393;28;20002;-85
2022/10/17 18:34:30;;;;;;;;;;;;;;;6.35;100.00;100451.03;4983126;28;20017;-85
2022/10/17 18:36:57;;;;;;;;;;;;;;;6.27;100.00;100466.97;4982856;28;19922;-85
2022/10/17 18:39:22;;;;;;;;;;;;;;;6.01;100.00;100462.03;4983305;28;19941;-85
2022/10/17 18:41:48;;;;;;;;;;;;;;;5.81;100.00;100460.53;4983082;28;20369;-85
2022/10/17 18:44:14;;;;;;;;;;;;;;;5.88;100.00;100466.56;4981931;28;20408;-85
2022/10/17 18:46:40;;;;;;;;;;;;;;;5.82;100.00;100464.00;4983207;28;19925;-85
2022/10/17 18:49:08;;;;;;;;;;;;;;;6.06;100.00;100470.75;4982498;28;19921;-85
2022/10/17 18:51:34;;;;;;;;;;;;;;;5.98;100.00;100473.50;4963864;28;20203;-85
2022/10/17 18:54:01;;;;;;;;;;;;;;;5.75;100.00;100467.63;4983102;28;19922;-84
2022/10/17 18:56:26;;;;;;;;;;;;;;;6.06;100.00;100459.34;4980837;28;20363;-85
2022/10/17 18:58:51;;;;;;;;;;;;;;;5.95;100.00;100457.72;4965741;28;19924;-84
2022/10/17 19:01:18;;;;;;;;;;;;;;;5.72;100.00;100460.63;4965699;28;19922;-84
2022/10/17 19:03:44;;;;;;;;;;;;;;;5.82;100.00;100466.66;4965264;28;19919;-85
2022/10/17 19:06:10;;;;;;;;;;;;;;;5.76;100.00;100457.09;4982570;28;19918;-86
2022/10/17 19:08:36;;;;;;;;;;;;;;;5.86;100.00;100457.84;4981597;28;19924;-85
2022/10/17 19:11:06;;;;;;;;;;;;;;;5.92;100.00;100457.75;4965409;28;20005;-83
2022/10/17 19:13:31;;;;;;;;;;;;;;;5.89;100.00;100454.28;4965241;28;20404;-83
2022/10/17 19:15:57;;;;;;;;;;;;;;;5.90;100.00;100458.66;4963924;28;19918;-84
2022/10/17 19:18:22;;;;;;;;;;;;;;;5.86;100.00;100456.97;4981747;28;19917;-84
2022/10/17 19:20:47;;;;;;;;;;;;;;;6.08;100.00;100450.56;4982904;28;19987;-84
2022/10/17 19:23:12;;;;;;;;;;;;;;;6.03;100.00;100448.88;4979531;28;19922;-84
2022/10/17 19:25:39;;;;;;;;;;;;;;;6.09;100.00;100456.69;4980050;28;20393;-84